createdAt,value
2017-11-29T00:00:52.229Z,3.60
2017-11-29T00:03:20.529Z,3.60
2017-11-29T00:05:48.799Z,3.60
2017-11-29T00:08:16.317Z,3.60
2017-11-29T00:10:44.587Z,3.60
2017-11-29T00:13:12.888Z,3.60
2017-11-29T00:15:41.198Z,3.50
2017-11-29T00:18:09.475Z,3.50
2017-11-29T00:20:38.070Z,3.50
2017-11-29T00:23:09.862Z,3.40
2017-11-29T00:25:38.129Z,3.50
2017-11-29T00:28:08.785Z,3.40
2017-11-29T00:30:37.463Z,3.40
2017-11-29T00:33:09.420Z,3.40
2017-11-29T00:35:37.312Z,3.30
2017-11-29T00:38:07.087Z,3.30
2017-11-29T00:40:35.769Z,3.30
2017-11-29T00:43:10.287Z,3.30
2017-11-29T00:45:38.892Z,3.40
2017-11-29T00:48:07.581Z,3.40
2017-11-29T00:50:36.180Z,3.30
2017-11-29T00:53:05.495Z,3.30
2017-11-29T00:55:34.790Z,3.30
2017-11-29T00:58:04.052Z,3.30
2017-11-29T01:00:32.775Z,3.30
2017-11-29T01:03:01.060Z,3.40
2017-11-29T01:05:29.797Z,3.40
2017-11-29T01:07:58.445Z,3.30
2017-11-29T01:10:27.094Z,3.20
2017-11-29T01:12:55.718Z,3.30
2017-11-29T01:15:24.478Z,3.30
2017-11-29T01:17:52.737Z,3.30
2017-11-29T01:20:21.009Z,3.30
2017-11-29T01:22:49.308Z,3.30
2017-11-29T01:25:17.578Z,3.30
2017-11-29T01:27:45.883Z,3.30
2017-11-29T01:30:14.153Z,3.30
2017-11-29T01:32:42.426Z,3.30
2017-11-29T01:35:10.739Z,3.30
2017-11-29T01:37:39.405Z,3.30
2017-11-29T01:40:07.425Z,3.30
2017-11-29T01:42:41.408Z,3.20
2017-11-29T01:45:09.681Z,3.20
2017-11-29T01:47:38.330Z,3.20
2017-11-29T01:50:06.956Z,3.20
2017-11-29T01:52:39.057Z,3.10
2017-11-29T01:55:08.082Z,3.10
2017-11-29T01:57:40.324Z,3.10
2017-11-29T02:00:08.976Z,3.10
2017-11-29T02:02:37.940Z,3.10
2017-11-29T02:05:06.608Z,3.10
2017-11-29T02:07:35.252Z,3.10
2017-11-29T02:10:04.807Z,3.10
2017-11-29T02:12:34.136Z,3.10
2017-11-29T02:15:01.637Z,3.10
2017-11-29T02:17:29.905Z,3.20
2017-11-29T02:19:58.192Z,3.20
2017-11-29T02:22:26.820Z,3.20
2017-11-29T02:24:55.652Z,3.20
2017-11-29T02:27:24.436Z,3.20
2017-11-29T02:29:52.700Z,3.20
2017-11-29T02:32:21.008Z,3.20
2017-11-29T02:34:49.269Z,3.20
2017-11-29T02:37:17.534Z,3.10
2017-11-29T02:39:57.706Z,3.10
2017-11-29T02:42:37.960Z,3.10
2017-11-29T02:45:06.622Z,3.10
2017-11-29T02:47:34.885Z,3.10
2017-11-29T02:50:03.504Z,3.10
2017-11-29T02:52:31.761Z,3.20
2017-11-29T02:55:00.060Z,3.20
2017-11-29T02:57:28.316Z,3.10
2017-11-29T02:59:56.591Z,3.10
2017-11-29T03:02:25.327Z,3.10
2017-11-29T03:04:54.073Z,3.10
2017-11-29T03:07:22.382Z,3.10
2017-11-29T03:09:50.694Z,3.10
2017-11-29T03:12:18.968Z,3.10
2017-11-29T03:14:47.274Z,3.10
2017-11-29T03:17:15.569Z,3.10
2017-11-29T03:19:43.860Z,3.10
2017-11-29T03:22:12.135Z,3.10
2017-11-29T03:24:40.436Z,3.00
2017-11-29T03:27:15.399Z,2.90
2017-11-29T03:29:43.707Z,3.00
2017-11-29T03:32:11.978Z,3.00
2017-11-29T03:34:40.276Z,3.00
2017-11-29T03:37:08.875Z,3.00
2017-11-29T03:39:37.915Z,3.10
2017-11-29T03:42:09.878Z,3.10
2017-11-29T03:44:38.181Z,3.00
2017-11-29T03:47:06.856Z,3.00
2017-11-29T03:49:34.726Z,2.90
2017-11-29T03:52:03.837Z,3.00
2017-11-29T03:54:32.476Z,2.90
2017-11-29T03:57:00.737Z,2.90
2017-11-29T03:59:29.384Z,3.00
2017-11-29T04:01:58.053Z,3.00
2017-11-29T04:04:26.693Z,3.00
2017-11-29T04:06:55.948Z,3.00
2017-11-29T04:09:24.604Z,3.00
2017-11-29T04:11:52.875Z,3.00
2017-11-29T04:14:21.178Z,3.10
2017-11-29T04:16:49.449Z,3.00
2017-11-29T04:19:17.760Z,3.10
2017-11-29T04:21:46.024Z,3.00
2017-11-29T04:24:14.288Z,3.00
2017-11-29T04:26:42.604Z,3.00
2017-11-29T04:29:10.879Z,2.90
2017-11-29T04:31:39.356Z,2.90
2017-11-29T04:34:07.968Z,2.90
2017-11-29T04:36:36.674Z,2.90
2017-11-29T04:39:05.262Z,2.90
2017-11-29T04:41:34.701Z,2.90
2017-11-29T04:44:04.039Z,2.80
2017-11-29T04:46:32.706Z,2.80
2017-11-29T04:49:01.018Z,2.80
2017-11-29T04:51:29.718Z,2.80
2017-11-29T04:53:58.302Z,2.80
2017-11-29T04:56:26.991Z,2.70
2017-11-29T04:58:55.581Z,2.70
2017-11-29T05:01:24.535Z,2.80
2017-11-29T05:03:52.813Z,2.80
2017-11-29T05:06:21.104Z,2.80
2017-11-29T05:08:49.406Z,2.80
2017-11-29T05:11:17.679Z,2.80
2017-11-29T05:13:45.987Z,2.80
2017-11-29T05:16:14.289Z,2.90
2017-11-29T05:18:42.572Z,2.80
2017-11-29T05:21:10.890Z,2.80
2017-11-29T05:23:39.442Z,2.80
2017-11-29T05:26:08.105Z,2.70
2017-11-29T05:28:44.804Z,2.70
2017-11-29T05:31:13.109Z,2.70
2017-11-29T05:33:41.378Z,2.70
2017-11-29T05:36:09.695Z,2.70
2017-11-29T05:38:37.661Z,2.70
2017-11-29T05:41:06.312Z,2.70
2017-11-29T05:43:34.966Z,2.60
2017-11-29T05:46:03.421Z,2.60
2017-11-29T05:48:31.736Z,2.60
2017-11-29T05:51:00.392Z,2.60
2017-11-29T05:53:28.651Z,2.60
2017-11-29T05:55:57.741Z,2.60
2017-11-29T05:58:26.366Z,2.60
2017-11-29T06:00:55.254Z,2.60
2017-11-29T06:03:24.532Z,2.70
2017-11-29T06:05:52.834Z,2.60
2017-11-29T06:08:21.089Z,2.50
2017-11-29T06:10:49.414Z,2.50
2017-11-29T06:13:17.690Z,2.50
2017-11-29T06:15:45.971Z,2.50
2017-11-29T06:18:14.266Z,2.50
2017-11-29T06:20:42.581Z,2.60
2017-11-29T06:23:10.902Z,2.60
2017-11-29T06:25:39.171Z,2.60
2017-11-29T06:28:07.436Z,2.60
2017-11-29T06:30:35.737Z,2.60
2017-11-29T06:33:04.885Z,2.70
2017-11-29T06:35:33.166Z,2.70
2017-11-29T06:38:01.440Z,2.70
2017-11-29T06:40:29.756Z,2.70
2017-11-29T06:42:58.013Z,2.60
2017-11-29T06:45:26.302Z,2.60
2017-11-29T06:47:55.439Z,2.60
2017-11-29T06:50:23.734Z,2.60
2017-11-29T06:52:52.025Z,2.70
2017-11-29T06:55:20.331Z,2.70
2017-11-29T06:57:48.598Z,2.70
2017-11-29T07:00:16.986Z,2.60
2017-11-29T07:02:45.264Z,2.60
2017-11-29T07:05:13.566Z,2.50
2017-11-29T07:07:41.860Z,2.60
2017-11-29T07:10:10.138Z,2.50
2017-11-29T07:12:38.446Z,2.50
2017-11-29T07:15:06.754Z,2.50
2017-11-29T07:17:35.035Z,2.60
2017-11-29T07:20:03.206Z,2.50
2017-11-29T07:22:31.489Z,2.50
2017-11-29T07:24:58.998Z,2.50
2017-11-29T07:27:27.307Z,2.40
2017-11-29T07:29:55.824Z,2.40
2017-11-29T07:32:24.618Z,2.30
2017-11-29T07:34:52.894Z,2.30
2017-11-29T07:37:21.206Z,2.20
2017-11-29T07:39:49.496Z,2.30
2017-11-29T07:42:17.776Z,2.30
2017-11-29T07:44:46.087Z,2.30
2017-11-29T07:47:14.349Z,2.30
2017-11-29T07:49:42.614Z,2.30
2017-11-29T07:52:10.905Z,2.40
2017-11-29T07:54:39.215Z,2.40
2017-11-29T07:57:07.491Z,2.40
2017-11-29T07:59:36.198Z,2.40
2017-11-29T08:02:04.500Z,2.50
2017-11-29T08:04:32.841Z,2.50
2017-11-29T08:07:01.154Z,2.50
2017-11-29T08:09:29.426Z,2.50
2017-11-29T08:11:57.723Z,2.50
2017-11-29T08:14:25.977Z,2.50
2017-11-29T08:16:54.285Z,2.60
2017-11-29T08:19:22.539Z,2.50
2017-11-29T08:21:50.849Z,2.60
2017-11-29T08:24:19.131Z,2.60
2017-11-29T08:26:47.407Z,2.60
2017-11-29T08:29:15.720Z,2.60
2017-11-29T08:31:44.008Z,2.60
2017-11-29T08:34:12.310Z,2.60
2017-11-29T08:36:40.621Z,2.70
2017-11-29T08:39:08.893Z,2.70
2017-11-29T08:41:37.160Z,2.80
2017-11-29T08:44:05.482Z,2.80
2017-11-29T08:46:34.209Z,2.90
2017-11-29T08:49:03.631Z,2.90
2017-11-29T08:51:33.375Z,2.90
2017-11-29T08:54:01.658Z,2.90
2017-11-29T08:56:29.972Z,2.90
2017-11-29T08:58:58.251Z,2.90
2017-11-29T09:01:26.554Z,3.00
2017-11-29T09:03:55.652Z,3.10
2017-11-29T09:06:24.553Z,3.10
2017-11-29T09:08:52.824Z,3.10
2017-11-29T09:11:21.121Z,3.10
2017-11-29T09:13:49.382Z,3.10
2017-11-29T09:16:17.687Z,3.20
2017-11-29T09:18:45.943Z,3.20
2017-11-29T09:21:14.232Z,3.20
2017-11-29T09:23:42.507Z,3.20
2017-11-29T09:26:10.817Z,3.10
2017-11-29T09:28:39.109Z,3.10
2017-11-29T09:31:07.397Z,3.10
2017-11-29T09:33:35.709Z,3.20
2017-11-29T09:36:05.210Z,3.30
2017-11-29T09:38:34.748Z,3.30
2017-11-29T09:41:03.681Z,3.30
2017-11-29T09:43:33.143Z,3.30
2017-11-29T09:46:01.503Z,3.40
2017-11-29T09:48:29.780Z,3.60
2017-11-29T09:50:58.082Z,3.60
2017-11-29T09:53:26.055Z,3.60
2017-11-29T09:55:54.713Z,3.70
2017-11-29T09:58:23.036Z,3.70
2017-11-29T10:00:52.326Z,3.80
2017-11-29T10:03:20.602Z,3.80
2017-11-29T10:05:48.875Z,3.90
2017-11-29T10:08:17.207Z,3.90
2017-11-29T10:10:45.499Z,3.90
2017-11-29T10:13:13.797Z,4.00
2017-11-29T10:15:42.117Z,4.10
2017-11-29T10:18:10.453Z,4.10
2017-11-29T10:20:38.765Z,4.10
2017-11-29T10:23:07.028Z,4.10
2017-11-29T10:25:34.566Z,4.10
2017-11-29T10:28:03.497Z,4.20
2017-11-29T10:30:31.798Z,4.20
2017-11-29T10:33:01.053Z,4.20
2017-11-29T10:35:29.340Z,4.20
2017-11-29T10:37:57.631Z,4.10
2017-11-29T10:40:25.934Z,4.10
2017-11-29T10:42:54.258Z,4.20
2017-11-29T10:45:21.761Z,4.20
2017-11-29T10:47:50.029Z,4.20
2017-11-29T10:50:18.321Z,4.20
2017-11-29T10:52:46.596Z,4.10
2017-11-29T10:55:14.897Z,4.10
2017-11-29T10:57:43.204Z,4.10
2017-11-29T11:00:11.493Z,4.10
2017-11-29T11:02:39.762Z,4.20
2017-11-29T11:05:08.061Z,4.20
2017-11-29T11:07:36.357Z,4.20
2017-11-29T11:10:04.651Z,4.20
2017-11-29T11:12:33.865Z,4.20
2017-11-29T11:15:02.180Z,4.20
2017-11-29T11:17:30.491Z,4.20
2017-11-29T11:19:58.800Z,4.20
2017-11-29T11:22:27.101Z,4.40
2017-11-29T11:24:55.408Z,4.30
2017-11-29T11:27:24.299Z,4.30
2017-11-29T11:29:52.596Z,4.30
2017-11-29T11:32:20.936Z,4.30
2017-11-29T11:34:49.220Z,4.30
2017-11-29T11:37:17.502Z,4.40
2017-11-29T11:39:45.810Z,4.40
2017-11-29T11:42:14.094Z,4.40
2017-11-29T11:44:42.408Z,4.40
2017-11-29T11:47:10.678Z,4.50
2017-11-29T11:49:38.943Z,4.40
2017-11-29T11:52:07.259Z,4.50
2017-11-29T11:54:35.524Z,4.40
2017-11-29T11:57:05.144Z,4.50
2017-11-29T11:59:34.839Z,4.50
2017-11-29T12:02:03.141Z,4.60
2017-11-29T12:04:31.414Z,4.50
2017-11-29T12:06:59.713Z,4.60
2017-11-29T12:09:27.986Z,4.60
2017-11-29T12:11:56.247Z,4.70
2017-11-29T12:14:25.343Z,4.80
2017-11-29T12:16:54.366Z,4.90
2017-11-29T12:19:22.635Z,4.90
2017-11-29T12:21:50.902Z,4.90
2017-11-29T12:24:19.216Z,5.00
2017-11-29T12:26:47.499Z,5.00
2017-11-29T12:29:15.779Z,5.00
2017-11-29T12:31:44.087Z,5.00
2017-11-29T12:34:12.359Z,5.00
2017-11-29T12:36:40.666Z,5.00
2017-11-29T12:39:08.940Z,5.00
2017-11-29T12:41:37.244Z,5.00
2017-11-29T12:44:05.523Z,5.10
2017-11-29T12:46:34.836Z,5.00
2017-11-29T12:49:24.309Z,5.10
2017-11-29T12:51:52.604Z,5.10
2017-11-29T12:54:20.871Z,5.10
2017-11-29T12:56:49.217Z,5.30
2017-11-29T12:59:17.478Z,5.20
2017-11-29T13:01:45.769Z,5.20
2017-11-29T13:04:14.074Z,5.20
2017-11-29T13:06:41.571Z,5.20
2017-11-29T13:09:09.866Z,5.20
2017-11-29T13:11:38.138Z,5.20
2017-11-29T13:14:06.434Z,5.20
2017-11-29T13:16:34.720Z,5.20
2017-11-29T13:19:03.916Z,5.20
2017-11-29T13:21:33.086Z,5.20
2017-11-29T13:24:01.382Z,5.20
2017-11-29T13:26:29.632Z,5.20
2017-11-29T13:28:57.940Z,5.20
2017-11-29T13:31:26.228Z,5.20
2017-11-29T13:33:54.520Z,5.20
2017-11-29T13:36:22.825Z,5.20
2017-11-29T13:38:51.092Z,5.20
2017-11-29T13:41:19.400Z,5.30
2017-11-29T13:43:47.664Z,5.50
2017-11-29T13:46:15.966Z,5.40
2017-11-29T13:48:43.474Z,5.40
2017-11-29T13:51:11.780Z,5.30
2017-11-29T13:53:39.318Z,5.20
2017-11-29T13:56:07.621Z,5.30
2017-11-29T13:58:35.932Z,5.30
2017-11-29T14:01:04.768Z,5.20
2017-11-29T14:03:33.624Z,5.30
2017-11-29T14:06:01.885Z,5.40
2017-11-29T14:08:30.195Z,5.30
2017-11-29T14:10:58.467Z,5.20
2017-11-29T14:13:26.778Z,5.20
2017-11-29T14:15:55.762Z,5.10
2017-11-29T14:18:24.989Z,5.20
2017-11-29T14:20:54.071Z,5.30
2017-11-29T14:23:22.332Z,5.10
2017-11-29T14:25:50.643Z,4.80
2017-11-29T14:28:18.918Z,4.80
2017-11-29T14:30:47.216Z,4.80
2017-11-29T14:33:15.468Z,4.70
2017-11-29T14:35:43.787Z,5.10
2017-11-29T14:38:12.064Z,5.20
2017-11-29T14:40:40.339Z,4.90
2017-11-29T14:43:08.646Z,4.90
2017-11-29T14:45:36.918Z,4.80
2017-11-29T14:48:05.194Z,4.70
2017-11-29T14:50:34.641Z,4.60
2017-11-29T14:53:03.748Z,4.60
2017-11-29T14:55:32.162Z,4.70
2017-11-29T14:58:00.443Z,4.70
2017-11-29T15:00:28.718Z,4.70
2017-11-29T15:02:57.024Z,4.70
2017-11-29T15:05:25.883Z,4.80
2017-11-29T15:07:54.916Z,4.80
2017-11-29T15:10:23.998Z,4.80
2017-11-29T15:12:52.304Z,4.80
2017-11-29T15:15:20.594Z,4.80
2017-11-29T15:17:48.870Z,4.80
2017-11-29T15:20:17.166Z,4.90
2017-11-29T15:22:45.458Z,4.80
2017-11-29T15:25:13.761Z,4.80
2017-11-29T15:27:42.024Z,4.80
2017-11-29T15:30:10.281Z,4.70
2017-11-29T15:32:38.587Z,4.70
2017-11-29T15:35:06.859Z,4.60
2017-11-29T15:37:34.387Z,4.60
2017-11-29T15:40:04.154Z,4.60
2017-11-29T15:42:33.097Z,4.70
2017-11-29T15:45:01.382Z,4.60
2017-11-29T15:47:29.660Z,4.60
2017-11-29T15:49:57.963Z,4.50
2017-11-29T15:52:26.224Z,4.50
2017-11-29T15:54:54.971Z,4.50
2017-11-29T15:57:23.899Z,4.50
2017-11-29T15:59:52.166Z,4.50
2017-11-29T16:02:20.473Z,4.50
2017-11-29T16:04:48.783Z,4.50
2017-11-29T16:07:17.041Z,4.40
2017-11-29T16:09:45.336Z,4.40
2017-11-29T16:12:17.204Z,4.50
2017-11-29T16:14:45.491Z,4.50
2017-11-29T16:17:13.753Z,4.50
2017-11-29T16:19:42.039Z,4.50
2017-11-29T16:22:13.632Z,4.40
2017-11-29T16:24:41.132Z,4.40
2017-11-29T16:27:09.431Z,4.30
2017-11-29T16:29:36.939Z,4.30
2017-11-29T16:32:05.215Z,4.30
2017-11-29T16:34:34.780Z,4.20
2017-11-29T16:37:03.984Z,4.20
2017-11-29T16:39:32.237Z,4.20
2017-11-29T16:42:00.529Z,4.20
2017-11-29T16:44:28.814Z,4.20
2017-11-29T16:46:57.126Z,4.10
2017-11-29T16:49:26.209Z,4.10
2017-11-29T16:51:54.940Z,4.10
2017-11-29T16:54:23.903Z,4.00
2017-11-29T16:56:52.223Z,4.00
2017-11-29T16:59:20.487Z,4.00
2017-11-29T17:01:48.800Z,3.90
2017-11-29T17:04:17.057Z,3.90
2017-11-29T17:06:45.383Z,3.90
2017-11-29T17:09:13.659Z,3.90
2017-11-29T17:11:41.922Z,3.90
2017-11-29T17:14:10.228Z,3.90
2017-11-29T17:16:38.499Z,3.80
2017-11-29T17:19:06.820Z,3.70
2017-11-29T17:21:35.081Z,3.70
2017-11-29T17:24:03.880Z,3.70
2017-11-29T17:26:32.954Z,3.70
2017-11-29T17:29:01.235Z,3.60
2017-11-29T17:31:29.547Z,3.60
2017-11-29T17:33:57.812Z,3.60
2017-11-29T17:36:26.323Z,3.50
2017-11-29T17:38:54.828Z,3.50
2017-11-29T17:41:23.125Z,3.40
2017-11-29T17:43:51.422Z,3.40
2017-11-29T17:46:19.689Z,3.40
2017-11-29T17:48:47.973Z,3.30
2017-11-29T17:51:16.256Z,3.30
2017-11-29T17:53:44.572Z,3.20
2017-11-29T17:56:12.862Z,3.20
2017-11-29T17:58:41.171Z,3.20
2017-11-29T18:01:09.467Z,3.20
2017-11-29T18:03:37.748Z,3.20
2017-11-29T18:06:06.047Z,3.20
2017-11-29T18:08:34.320Z,3.20
2017-11-29T18:11:03.671Z,3.10
2017-11-29T18:13:31.924Z,3.10
2017-11-29T18:16:00.270Z,3.00
2017-11-29T18:18:28.550Z,3.10
2017-11-29T18:20:56.827Z,3.10
2017-11-29T18:23:26.090Z,3.00
2017-11-29T18:25:54.772Z,2.90
2017-11-29T18:28:22.291Z,2.90
2017-11-29T18:30:50.594Z,2.90
2017-11-29T18:33:18.857Z,2.80
2017-11-29T18:35:47.149Z,2.90
2017-11-29T18:38:15.473Z,2.90
2017-11-29T18:40:43.779Z,2.90
2017-11-29T18:43:12.052Z,2.90
2017-11-29T18:45:40.355Z,2.80
2017-11-29T18:48:09.587Z,2.80
2017-11-29T18:50:37.879Z,3.00
2017-11-29T18:53:06.169Z,3.10
2017-11-29T18:55:34.490Z,3.00
2017-11-29T18:58:03.790Z,2.60
2017-11-29T19:00:32.788Z,2.60
2017-11-29T19:03:01.054Z,2.40
2017-11-29T19:05:29.370Z,2.60
2017-11-29T19:07:57.657Z,2.50
2017-11-29T19:10:26.196Z,2.40
2017-11-29T19:12:54.913Z,2.50
2017-11-29T19:15:23.227Z,2.40
2017-11-29T19:17:52.240Z,2.40
2017-11-29T19:20:20.525Z,2.50
2017-11-29T19:22:48.777Z,2.50
2017-11-29T19:25:17.083Z,2.40
2017-11-29T19:27:45.371Z,2.40
2017-11-29T19:30:13.668Z,2.40
2017-11-29T19:32:41.938Z,2.40
2017-11-29T19:35:10.252Z,2.40
2017-11-29T19:37:38.523Z,2.40
2017-11-29T19:40:06.795Z,2.50
2017-11-29T19:42:35.083Z,2.50
2017-11-29T19:45:04.205Z,2.60
2017-11-29T19:47:33.258Z,2.60
2017-11-29T19:50:01.546Z,2.60
2017-11-29T19:52:29.832Z,2.60
2017-11-29T19:54:58.107Z,2.60
2017-11-29T19:57:26.455Z,2.50
2017-11-29T19:59:55.343Z,2.50
2017-11-29T20:02:24.021Z,2.50
2017-11-29T20:04:52.335Z,2.50
2017-11-29T20:07:20.622Z,2.60
2017-11-29T20:09:48.944Z,2.50
2017-11-29T20:12:17.263Z,2.50
2017-11-29T20:14:45.520Z,2.50
2017-11-29T20:17:13.817Z,2.50
2017-11-29T20:19:42.119Z,2.50
2017-11-29T20:22:10.424Z,2.50
2017-11-29T20:24:38.698Z,2.50
2017-11-29T20:27:06.989Z,2.50
2017-11-29T20:29:34.484Z,2.50
2017-11-29T20:32:04.045Z,2.40
2017-11-29T20:34:33.500Z,2.40
2017-11-29T20:37:01.766Z,2.30
2017-11-29T20:39:30.069Z,2.30
2017-11-29T20:41:58.360Z,2.30
2017-11-29T20:44:26.668Z,2.30
2017-11-29T20:46:55.427Z,2.30
2017-11-29T20:49:24.509Z,2.30
2017-11-29T20:51:52.768Z,2.30
2017-11-29T20:54:21.061Z,2.30
2017-11-29T20:56:49.329Z,2.30
2017-11-29T20:59:17.734Z,2.20
2017-11-29T21:01:46.001Z,2.20
2017-11-29T21:04:14.272Z,2.20
2017-11-29T21:06:41.811Z,2.20
2017-11-29T21:09:10.067Z,2.20
2017-11-29T21:11:38.380Z,2.20
2017-11-29T21:14:06.685Z,2.30
2017-11-29T21:16:34.971Z,2.00
2017-11-29T21:19:03.262Z,1.90
2017-11-29T21:21:31.525Z,1.80
2017-11-29T21:23:59.832Z,1.80
2017-11-29T21:26:28.108Z,2.00
2017-11-29T21:28:56.420Z,1.90
2017-11-29T21:31:25.592Z,2.00
2017-11-29T21:33:54.596Z,2.00
2017-11-29T21:36:22.862Z,2.00
2017-11-29T21:38:51.174Z,2.00
2017-11-29T21:41:19.431Z,1.90
2017-11-29T21:43:47.741Z,2.00
2017-11-29T21:46:16.028Z,2.10
2017-11-29T21:48:44.338Z,2.00
2017-11-29T21:51:12.637Z,2.00
2017-11-29T21:53:40.906Z,2.10
2017-11-29T21:56:09.201Z,2.20
2017-11-29T21:58:37.510Z,2.10
2017-11-29T22:01:05.777Z,2.00
2017-11-29T22:03:35.333Z,2.00
2017-11-29T22:06:04.821Z,2.00
2017-11-29T22:08:34.016Z,2.10
2017-11-29T22:11:02.277Z,2.20
2017-11-29T22:13:30.550Z,2.20
2017-11-29T22:15:58.912Z,2.10
2017-11-29T22:18:27.145Z,2.10
2017-11-29T22:20:56.275Z,2.20
2017-11-29T22:23:24.933Z,2.20
2017-11-29T22:25:53.196Z,2.10
2017-11-29T22:28:21.495Z,2.00
2017-11-29T22:30:49.766Z,2.00
2017-11-29T22:33:18.078Z,2.00
2017-11-29T22:35:46.340Z,2.00
2017-11-29T22:38:14.645Z,2.00
2017-11-29T22:40:42.914Z,2.10
2017-11-29T22:43:11.221Z,2.10
2017-11-29T22:45:39.499Z,2.20
2017-11-29T22:48:07.818Z,2.20
2017-11-29T22:50:36.131Z,2.20
2017-11-29T22:53:05.882Z,2.30
2017-11-29T22:55:34.740Z,2.20
2017-11-29T22:58:03.956Z,2.30
2017-11-29T23:00:32.276Z,2.30
2017-11-29T23:03:00.554Z,2.30
2017-11-29T23:05:28.824Z,2.20
2017-11-29T23:07:57.127Z,2.20
2017-11-29T23:10:26.181Z,2.20
2017-11-29T23:12:55.004Z,2.20
2017-11-29T23:15:23.260Z,2.30
2017-11-29T23:17:51.571Z,2.30
2017-11-29T23:20:19.837Z,2.20
2017-11-29T23:22:48.119Z,2.20
2017-11-29T23:25:16.420Z,2.20
2017-11-29T23:27:44.695Z,2.20
2017-11-29T23:30:12.999Z,2.20
2017-11-29T23:32:41.275Z,2.20
2017-11-29T23:35:09.582Z,2.20
2017-11-29T23:37:37.909Z,2.30
2017-11-29T23:40:06.183Z,2.30
2017-11-29T23:42:34.470Z,2.30
2017-11-29T23:45:04.132Z,2.30
2017-11-29T23:47:32.451Z,2.30
2017-11-29T23:50:00.731Z,2.20
2017-11-29T23:52:29.042Z,2.20
2017-11-29T23:54:57.325Z,2.20
2017-11-29T23:57:26.243Z,2.20
2017-11-29T23:59:54.899Z,2.30
